Portada
METAR-TAF:

METAR-TAF

Aeroports :

Bíldudalur, Islàndia

latitud: 65-38-30N, longitud: 23-32-45W, altitud: 8 m

Observació

L'informe es va fer fa 33 minuts, a les 16:00 UTC
Vent 20 kt del Sud/Sud-Est
Temperatura 6°C
Humitat 75%
Pressió 994 hPa
Visibilitat 10 km o més
Escasses núvols a una alçada de 1800 ft
Cel cobert a una alçada de 2000 ft
xàfecs de pluja

METAR: BIBD 011600Z 16020KT 9999 SHRA FEW018 OVC020 06/02 Q0994

Hora: 16:33 (16:33 UTC)

Pronòstic

L'informe es va fer fa 3 hores i 26 minuts, a les 13:07 UTC
Pronòstic vàlid del 01 a les 14 UTC al 01 a les 20 UTC
Vent 18 kt del Sud
Visibilitat 10 km o més
Escasses núvols a una alçada de 1500 ft
Cel ennuvolat a una alçada de 3000 ft
xàfecs de pluja
Temporalment
l' 01 a les 14 UTC al 01 a les 16 UTC
Vent 22 kt del Sud/Sud-Est amb ràfegues de 34 kt
Cel ennuvolat a una alçada de 1400 ft, Cumulonimbus.
xàfecs de pluja

TAF: BIBD 011307Z 0114/0120 18018KT 9999 -SHRA FEW015 BKN030 TEMPO 0114/0116 16022G34KT SHRA BKN014CB

Observacions i pronòstics meteorològics de més de 4000 aeroports (METAR i TAF).

Les estacions disponibles són els punts grocs i vermells al mapa.

Posi el ratolí al punt desitjat per veure el nom de l'estació.

Feu clic per veure les observacions i els pronòstics meteorològics.

Per canviar el mapa: feu clic els botons verds amb una creu de color negre per apropar; al botó verd amb un guió per allunyar la imatge; o en les fletxes verdes per a mapes adjacents.


METAR-TAF: